Time;durP1;ratioP1;P1;durP2;ratioP2;P2;SDS_P1;SDS_P2;PMS_P1;PMS_P2;Temp;Humidity;BMP_temperature;BMP_pressure;BME280_temperature;BME280_humidity;BME280_pressure;Samples;Min_cycle;Max_cycle;Signal;HPM_P1;HPM_P2
2023/10/04 00:01:10;;;;;;;;;;;;;;;15.06;45.92;100469.84;3160682;28;20018;-65
2023/10/04 00:02:43;;;;;;;;;;;;;;;15.06;45.77;100465.44;3170604;28;19950;-65
2023/10/04 00:04:13;;;;;;;;;;;;;;;15.05;46.04;100468.13;3167824;28;19936;-65
2023/10/04 00:05:45;;;;;;;;;;;;;;;15.04;45.88;100463.81;3162021;28;19924;-65
2023/10/04 00:07:15;;;;;;;;;;;;;;;15.03;45.94;100457.72;3168590;28;20394;-65
2023/10/04 00:08:48;;;;;;;;;;;;;;;15.04;45.82;100459.41;3170151;28;19971;-65
2023/10/04 00:10:21;;;;;;;;;;;;;;;15.05;45.64;100455.84;3170110;28;19928;-65
2023/10/04 00:11:52;;;;;;;;;;;;;;;15.07;45.55;100451.38;3170351;28;20371;-65
2023/10/04 00:13:23;;;;;;;;;;;;;;;15.10;45.48;100456.47;3170087;28;20370;-65
2023/10/04 00:14:55;;;;;;;;;;;;;;;15.12;45.76;100452.00;3169746;28;19924;-65
2023/10/04 00:16:26;;;;;;;;;;;;;;;15.15;45.30;100449.19;3165909;28;20312;-66
2023/10/04 00:17:57;;;;;;;;;;;;;;;15.14;45.53;100450.09;3170240;28;19938;-65
2023/10/04 00:19:29;;;;;;;;;;;;;;;15.14;45.55;100447.47;3165535;28;19931;-65
2023/10/04 00:21:01;;;;;;;;;;;;;;;15.13;45.55;100443.19;3167110;28;20024;-65
2023/10/04 00:22:31;;;;;;;;;;;;;;;15.14;45.48;100436.16;3169863;28;20001;-64
2023/10/04 00:24:05;;;;;;;;;;;;;;;15.16;45.19;100443.00;3168348;28;21571;-64
2023/10/04 00:25:36;;;;;;;;;;;;;;;15.18;45.46;100443.78;3155213;28;19987;-64
2023/10/04 00:27:07;;;;;;;;;;;;;;;15.20;45.41;100448.94;3149702;28;19924;-64
2023/10/04 00:28:38;;;;;;;;;;;;;;;15.21;45.47;100450.66;3169877;28;19932;-64
2023/10/04 00:30:16;;;;;;;;;;;;;;;15.22;45.35;100453.19;3169668;28;19928;-64
2023/10/04 00:31:48;;;;;;;;;;;;;;;15.24;45.31;100445.22;3168828;28;19934;-64
2023/10/04 00:33:19;;;;;;;;;;;;;;;15.23;45.18;100448.78;3166670;28;20370;-65
2023/10/04 00:34:51;;;;;;;;;;;;;;;15.24;45.16;100451.31;3167008;28;20018;-65
2023/10/04 00:36:22;;;;;;;;;;;;;;;15.24;45.42;100443.44;3169828;28;19931;-65
2023/10/04 00:37:57;;;;;;;;;;;;;;;15.26;45.28;100448.59;3169870;28;19924;-65
2023/10/04 00:39:29;;;;;;;;;;;;;;;15.17;45.15;100434.22;3169354;28;19927;-65
2023/10/04 00:41:00;;;;;;;;;;;;;;;15.20;45.09;100434.06;3169061;28;20034;-65
2023/10/04 00:42:31;;;;;;;;;;;;;;;15.21;45.21;100440.16;3169136;28;19924;-65
2023/10/04 00:44:04;;;;;;;;;;;;;;;15.22;45.18;100442.69;3169670;28;19934;-65
2023/10/04 00:45:34;;;;;;;;;;;;;;;15.23;45.44;100441.78;3165786;28;20385;-65
2023/10/04 00:47:07;;;;;;;;;;;;;;;15.23;45.34;100441.78;3160732;28;19943;-65
2023/10/04 00:48:39;;;;;;;;;;;;;;;15.23;45.30;100441.78;3165171;28;19927;-65
2023/10/04 00:50:16;;;;;;;;;;;;;;;15.24;45.18;100451.31;3169777;28;20445;-65
2023/10/04 00:51:46;;;;;;;;;;;;;;;15.24;45.40;100440.00;3169268;28;20274;-65
2023/10/04 00:53:22;;;;;;;;;;;;;;;15.23;45.17;100433.03;3169422;28;19935;-65
2023/10/04 00:54:54;;;;;;;;;;;;;;;15.20;45.37;100436.69;3156457;28;20381;-65
2023/10/04 00:56:25;;;;;;;;;;;;;;;15.18;45.65;100429.81;3153177;28;20030;-65
2023/10/04 00:57:56;;;;;;;;;;;;;;;15.18;45.57;100432.44;3159128;28;19935;-65
2023/10/04 00:59:28;;;;;;;;;;;;;;;15.20;45.41;100438.44;3169280;28;19928;-65
2023/10/04 01:00:58;;;;;;;;;;;;;;;15.20;45.53;100430.56;3161347;28;19989;-65
2023/10/04 01:02:33;;;;;;;;;;;;;;;15.17;45.57;100428.13;3166172;28;20059;-65
2023/10/04 01:04:05;;;;;;;;;;;;;;;15.13;45.73;100430.06;3167418;28;19931;-65
2023/10/04 01:05:45;;;;;;;;;;;;;;;15.15;45.83;100435.25;3163218;28;20011;-65
2023/10/04 01:07:16;;;;;;;;;;;;;;;15.11;45.89;100429.28;3166418;28;20353;-65
2023/10/04 01:08:48;;;;;;;;;;;;;;;15.05;45.99;100429.63;3169818;28;19949;-65
2023/10/04 01:10:24;;;;;;;;;;;;;;;14.98;46.09;100429.09;3169556;28;19999;-65
2023/10/04 01:11:55;;;;;;;;;;;;;;;14.92;46.36;100428.59;3169507;28;19934;-66
2023/10/04 01:13:26;;;;;;;;;;;;;;;14.87;46.20;100428.00;3169848;28;20200;-65
2023/10/04 01:15:21;;;;;;;;;;;;;;;14.76;46.92;100429.41;3169292;28;19928;-66
2023/10/04 01:16:51;;;;;;;;;;;;;;;14.66;47.12;100430.81;3156676;28;19967;-65
2023/10/04 01:18:22;;;;;;;;;;;;;;;14.57;47.39;100433.91;3164616;28;20426;-65
2023/10/04 01:19:54;;;;;;;;;;;;;;;14.47;47.94;100430.88;3169650;28;19924;-65
2023/10/04 01:21:25;;;;;;;;;;;;;;;14.42;48.33;100437.28;3165158;28;19950;-66
2023/10/04 01:23:00;;;;;;;;;;;;;;;14.39;48.23;100434.81;3169316;28;19928;-65
2023/10/04 01:24:34;;;;;;;;;;;;;;;14.38;48.21;100443.63;3169771;28;19924;-66
2023/10/04 01:26:04;;;;;;;;;;;;;;;14.34;48.34;100438.53;3169674;28;20000;-65
2023/10/04 01:27:38;;;;;;;;;;;;;;;14.31;48.25;100443.06;3161200;28;20050;-65
2023/10/04 01:29:11;;;;;;;;;;;;;;;14.26;48.57;100445.94;3156862;28;19928;-65
2023/10/04 01:30:44;;;;;;;;;;;;;;;14.26;48.47;100439.84;3159194;28;19939;-66
2023/10/04 01:32:17;;;;;;;;;;;;;;;14.27;48.33;100442.38;3165296;28;20026;-66
2023/10/04 01:33:48;;;;;;;;;;;;;;;14.27;48.37;100445.00;3169672;28;19977;-66
2023/10/04 01:35:23;;;;;;;;;;;;;;;14.21;48.98;100442.69;3169603;28;19924;-66
2023/10/04 01:36:53;;;;;;;;;;;;;;;14.13;48.87;100443.97;3169100;28;19932;-66
2023/10/04 01:38:27;;;;;;;;;;;;;;;14.12;49.03;100435.28;3144456;28;19932;-65
2023/10/04 01:39:58;;;;;;;;;;;;;;;14.14;48.73;100438.69;3168698;28;19938;-67
2023/10/04 01:41:30;;;;;;;;;;;;;;;14.18;48.74;100439.38;3169328;28;20393;-66
2023/10/04 01:43:00;;;;;;;;;;;;;;;14.20;48.83;100442.78;3169264;28;20342;-65
2023/10/04 01:44:32;;;;;;;;;;;;;;;14.22;48.50;100443.53;3159293;28;19928;-65
2023/10/04 01:46:04;;;;;;;;;;;;;;;14.24;48.62;100442.53;3157705;28;20239;-65
2023/10/04 01:47:35;;;;;;;;;;;;;;;14.26;48.44;100447.69;3160541;28;19932;-65
2023/10/04 01:49:07;;;;;;;;;;;;;;;14.28;48.55;100445.84;3169206;28;20054;-65
2023/10/04 01:50:38;;;;;;;;;;;;;;;14.27;48.40;100445.00;3169302;28;19935;-66
2023/10/04 01:52:09;;;;;;;;;;;;;;;14.24;48.74;100445.16;3169609;28;20316;-65
2023/10/04 01:53:43;;;;;;;;;;;;;;;14.24;48.33;100439.91;3166748;28;19928;-65
2023/10/04 01:55:16;;;;;;;;;;;;;;;14.26;48.64;100445.94;3160922;28;20381;-65
2023/10/04 01:56:48;;;;;;;;;;;;;;;14.29;48.38;100439.69;3169279;28;20373;-65
2023/10/04 01:58:23;;;;;;;;;;;;;;;14.31;48.35;100441.28;3169475;28;19984;-65
2023/10/04 01:59:54;;;;;;;;;;;;;;;14.32;48.33;100436.91;3168926;28;20028;-65
2023/10/04 02:01:26;;;;;;;;;;;;;;;14.33;48.24;100442.06;3156097;28;20037;-64
2023/10/04 02:02:57;;;;;;;;;;;;;;;14.31;48.39;100437.81;3149257;28;19928;-65
2023/10/04 02:04:29;;;;;;;;;;;;;;;14.29;48.47;100431.84;3158278;28;19932;-65
2023/10/04 02:05:59;;;;;;;;;;;;;;;14.27;48.48;100438.91;3162461;28;19924;-65
2023/10/04 02:07:31;;;;;;;;;;;;;;;14.22;48.72;100439.13;3171218;28;19949;-65
2023/10/04 02:09:09;;;;;;;;;;;;;;;14.19;48.84;100439.28;3171479;28;19928;-65
2023/10/04 02:10:44;;;;;;;;;;;;;;;14.15;49.08;100439.53;3167631;28;19971;-65
2023/10/04 02:12:16;;;;;;;;;;;;;;;14.10;48.97;100444.97;3166416;28;19928;-65
2023/10/04 02:13:47;;;;;;;;;;;;;;;14.05;49.36;100442.59;3156631;28;19947;-65
2023/10/04 02:15:18;;;;;;;;;;;;;;;14.03;49.30;100449.69;3161513;28;19938;-65
2023/10/04 02:16:50;;;;;;;;;;;;;;;14.05;49.14;100446.97;3158342;28;19935;-65
2023/10/04 02:18:21;;;;;;;;;;;;;;;14.05;49.24;100454.81;3161659;28;19951;-66
2023/10/04 02:19:54;;;;;;;;;;;;;;;14.04;49.02;100440.88;3166278;28;20036;-65
2023/10/04 02:21:26;;;;;;;;;;;;;;;14.05;49.16;100444.34;3166203;28;20417;-64
2023/10/04 02:22:57;;;;;;;;;;;;;;;14.01;49.18;100446.28;3166034;28;20844;-65
2023/10/04 02:24:31;;;;;;;;;;;;;;;13.99;49.41;100452.50;3165997;28;19928;-65
2023/10/04 02:26:05;;;;;;;;;;;;;;;13.95;49.65;100449.19;3166461;28;19932;-65
2023/10/04 02:27:37;;;;;;;;;;;;;;;13.88;49.86;100447.81;3166416;28;20066;-65
2023/10/04 02:29:09;;;;;;;;;;;;;;;13.87;49.59;100451.34;3165834;28;20315;-65
2023/10/04 02:30:41;;;;;;;;;;;;;;;13.84;49.68;100448.88;3161288;28;19935;-65
2023/10/04 02:32:13;;;;;;;;;;;;;;;13.80;49.94;100447.31;3149220;28;20417;-65
2023/10/04 02:33:45;;;;;;;;;;;;;;;13.75;50.06;100444.91;3159798;28;20001;-65
2023/10/04 02:35:25;;;;;;;;;;;;;;;13.74;50.21;100443.22;3165795;28;19932;-65
2023/10/04 02:36:58;;;;;;;;;;;;;;;13.77;50.16;100443.09;3165535;28;20396;-64
2023/10/04 02:38:33;;;;;;;;;;;;;;;13.76;50.16;100443.19;3166468;28;19967;-65
2023/10/04 02:40:14;;;;;;;;;;;;;;;13.76;50.22;100437.94;3166288;28;19939;-65
2023/10/04 02:41:47;;;;;;;;;;;;;;;13.75;50.25;100441.47;3142061;28;19928;-65
2023/10/04 02:43:18;;;;;;;;;;;;;;;13.70;50.13;100439.06;3165897;28;20428;-65
2023/10/04 02:44:50;;;;;;;;;;;;;;;13.70;49.95;100449.56;3163159;28;20024;-65
2023/10/04 02:46:20;;;;;;;;;;;;;;;13.74;50.04;100440.63;3154776;28;19928;-65
2023/10/04 02:47:52;;;;;;;;;;;;;;;13.77;49.87;100440.47;3164366;28;19928;-65
2023/10/04 02:49:23;;;;;;;;;;;;;;;13.81;49.76;100443.78;3165607;28;19927;-65
2023/10/04 02:50:55;;;;;;;;;;;;;;;13.83;49.72;100442.78;3165679;28;20416;-65
2023/10/04 02:52:27;;;;;;;;;;;;;;;13.85;49.49;100433.09;3165809;28;20014;-65
2023/10/04 02:53:59;;;;;;;;;;;;;;;13.87;49.77;100440.84;3160891;28;20408;-65
2023/10/04 02:55:32;;;;;;;;;;;;;;;13.84;49.79;100435.78;3160298;28;20038;-65
2023/10/04 02:57:03;;;;;;;;;;;;;;;13.82;49.62;100435.88;3165723;28;20218;-65
2023/10/04 02:58:35;;;;;;;;;;;;;;;13.84;49.55;100435.78;3165530;28;19927;-65
2023/10/04 03:00:13;;;;;;;;;;;;;;;13.82;49.71;100430.63;3161664;28;20112;-65
2023/10/04 03:01:43;;;;;;;;;;;;;;;13.81;49.57;100435.91;3151703;28;19935;-65
2023/10/04 03:03:21;;;;;;;;;;;;;;;13.79;49.66;100435.16;3146593;28;20017;-65
2023/10/04 03:04:52;;;;;;;;;;;;;;;13.78;49.74;100434.31;3157412;28;20326;-66
2023/10/04 03:06:25;;;;;;;;;;;;;;;13.78;49.72;100436.06;3144011;28;19928;-66
2023/10/04 03:07:56;;;;;;;;;;;;;;;13.74;49.74;100440.63;3155607;28;20022;-66
2023/10/04 03:09:28;;;;;;;;;;;;;;;13.71;49.94;100438.16;3162756;28;20282;-65
2023/10/04 03:11:03;;;;;;;;;;;;;;;13.68;50.21;100440.91;3165547;28;20279;-66
2023/10/04 03:12:35;;;;;;;;;;;;;;;13.67;50.04;100441.00;3165478;28;19935;-66
2023/10/04 03:14:07;;;;;;;;;;;;;;;13.65;49.98;100436.66;3152901;28;19934;-68
2023/10/04 03:15:38;;;;;;;;;;;;;;;13.63;49.96;100435.03;3161047;28;19940;-67
2023/10/04 03:17:10;;;;;;;;;;;;;;;13.60;50.46;100435.19;3164994;28;20388;-66
2023/10/04 03:18:45;;;;;;;;;;;;;;;13.57;50.54;100435.34;3165447;28;19974;-67
2023/10/04 03:20:20;;;;;;;;;;;;;;;13.56;50.58;100433.66;3165783;28;19928;-67
2023/10/04 03:21:52;;;;;;;;;;;;;;;13.58;50.52;100437.06;3165525;28;19932;-67
2023/10/04 03:23:23;;;;;;;;;;;;;;;13.58;50.30;100437.06;3165552;28;19927;-67
2023/10/04 03:24:55;;;;;;;;;;;;;;;13.53;50.58;100431.19;3165441;28;19958;-70
2023/10/04 03:26:29;;;;;;;;;;;;;;;13.50;50.69;100437.41;3165488;28;19932;-70
2023/10/04 03:27:59;;;;;;;;;;;;;;;13.45;50.96;100438.53;3165693;28;19955;-70
2023/10/04 03:29:31;;;;;;;;;;;;;;;13.36;51.25;100442.41;3160782;28;19928;-70
2023/10/04 03:31:03;;;;;;;;;;;;;;;13.24;51.97;100437.72;3158858;28;19935;-69
2023/10/04 03:32:36;;;;;;;;;;;;;;;13.12;52.23;100433.91;3152831;28;20010;-69
2023/10/04 03:34:09;;;;;;;;;;;;;;;13.09;52.26;100436.66;3159216;28;19950;-67
2023/10/04 03:35:43;;;;;;;;;;;;;;;13.08;52.49;100440.22;3165357;28;20506;-68
2023/10/04 03:37:22;;;;;;;;;;;;;;;13.09;52.05;100442.72;3165127;28;19928;-67
2023/10/04 03:38:53;;;;;;;;;;;;;;;13.07;52.29;100438.50;3164723;28;20015;-67
2023/10/04 03:40:34;;;;;;;;;;;;;;;12.99;52.65;100441.47;3165203;28;20034;-68
2023/10/04 03:42:06;;;;;;;;;;;;;;;12.95;52.73;100442.50;3165146;28;19934;-67
2023/10/04 03:43:38;;;;;;;;;;;;;;;12.89;52.99;100442.78;3158646;28;20472;-67
2023/10/04 03:45:10;;;;;;;;;;;;;;;12.80;53.73;100436.19;3165243;28;20389;-67
2023/10/04 03:46:43;;;;;;;;;;;;;;;12.72;54.04;100444.38;3152279;28;20407;-67
2023/10/04 03:48:15;;;;;;;;;;;;;;;12.65;54.29;100447.31;3165483;28;20018;-67
2023/10/04 03:49:49;;;;;;;;;;;;;;;12.60;54.01;100447.53;3165110;28;19934;-67
2023/10/04 03:51:20;;;;;;;;;;;;;;;12.64;53.93;100446.47;3165208;28;20163;-67
2023/10/04 03:52:52;;;;;;;;;;;;;;;12.69;53.58;100443.69;3165087;28;20800;-67
2023/10/04 03:54:23;;;;;;;;;;;;;;;12.74;53.61;100446.91;3156800;28;19928;-68
2023/10/04 03:55:54;;;;;;;;;;;;;;;12.78;53.36;100443.28;3162131;28;19957;-67
2023/10/04 03:57:27;;;;;;;;;;;;;;;12.81;53.08;100443.13;3164999;28;19928;-67
2023/10/04 03:58:59;;;;;;;;;;;;;;;12.84;52.96;100440.38;3160639;28;20411;-67
2023/10/04 04:00:31;;;;;;;;;;;;;;;12.88;52.75;100439.31;3160185;28;20014;-68
2023/10/04 04:02:05;;;;;;;;;;;;;;;12.90;52.70;100442.72;3149069;28;19928;-67
2023/10/04 04:03:35;;;;;;;;;;;;;;;12.93;52.49;100433.91;3146165;28;19928;-67
2023/10/04 04:05:13;;;;;;;;;;;;;;;12.97;52.29;100441.53;3154976;28;19987;-67
2023/10/04 04:06:46;;;;;;;;;;;;;;;12.99;52.55;100438.84;3157642;28;19990;-65
2023/10/04 04:08:17;;;;;;;;;;;;;;;12.95;52.67;100438.16;3164994;28;20412;-64
2023/10/04 04:09:49;;;;;;;;;;;;;;;12.90;53.02;100441.88;3161045;28;19953;-64
2023/10/04 04:11:19;;;;;;;;;;;;;;;12.86;52.90;100440.31;3164786;28;19985;-65
2023/10/04 04:12:52;;;;;;;;;;;;;;;12.83;52.61;100441.28;3158912;28;20019;-67
2023/10/04 04:14:23;;;;;;;;;;;;;;;12.82;53.05;100444.81;3153735;28;20385;-66
2023/10/04 04:15:56;;;;;;;;;;;;;;;12.80;52.80;100443.19;3158699;28;19928;-67
2023/10/04 04:17:27;;;;;;;;;;;;;;;12.81;52.74;100440.53;3164886;28;20475;-67
2023/10/04 04:18:59;;;;;;;;;;;;;;;12.84;52.88;100437.78;3164411;28;20392;-68
2023/10/04 04:20:31;;;;;;;;;;;;;;;12.91;52.64;100435.72;3153897;28;20218;-69
2023/10/04 04:22:03;;;;;;;;;;;;;;;12.94;52.49;100436.44;3154839;28;19928;-66
2023/10/04 04:23:34;;;;;;;;;;;;;;;12.97;52.74;100440.69;3155665;28;20386;-69
2023/10/04 04:25:14;;;;;;;;;;;;;;;12.99;52.50;100441.47;3152124;28;19927;-67
2023/10/04 04:26:46;;;;;;;;;;;;;;;13.01;52.36;100444.00;3163457;28;20468;-67
2023/10/04 04:28:20;;;;;;;;;;;;;;;13.00;52.61;100439.69;3163127;28;19989;-70
2023/10/04 04:29:52;;;;;;;;;;;;;;;13.01;52.52;100438.78;3163171;28;19935;-68
2023/10/04 04:31:25;;;;;;;;;;;;;;;13.04;52.46;100439.47;3154522;28;19928;-68
2023/10/04 04:32:56;;;;;;;;;;;;;;;13.09;52.60;100434.03;3156652;28;20750;-69
2023/10/04 04:34:29;;;;;;;;;;;;;;;13.14;52.48;100442.53;3159115;28;19935;-72
2023/10/04 04:36:05;;;;;;;;;;;;;;;13.17;52.41;100439.78;3164622;28;19928;-68
2023/10/04 04:37:37;;;;;;;;;;;;;;;13.21;52.04;100441.31;3164413;28;19944;-67
2023/10/04 04:39:16;;;;;;;;;;;;;;;13.23;52.09;100439.50;3164840;28;19932;-68
2023/10/04 04:40:49;;;;;;;;;;;;;;;13.23;51.96;100431.66;3164551;28;19963;-68
2023/10/04 04:42:30;;;;;;;;;;;;;;;13.26;52.11;100435.94;3158555;28;19927;-67
2023/10/04 04:44:07;;;;;;;;;;;;;;;13.28;52.14;100440.19;3164528;28;20127;-66
2023/10/04 04:45:41;;;;;;;;;;;;;;;13.26;51.92;100436.78;3161049;28;20224;-70
2023/10/04 04:47:13;;;;;;;;;;;;;;;13.30;51.94;100447.94;3160185;28;19974;-68
2023/10/04 04:48:44;;;;;;;;;;;;;;;13.31;52.04;100440.03;3142628;28;19940;-69
2023/10/04 04:50:16;;;;;;;;;;;;;;;13.31;52.38;100449.63;3161046;28;19993;-67
2023/10/04 04:51:47;;;;;;;;;;;;;;;13.31;52.20;100455.72;3161131;28;20001;-69
2023/10/04 04:53:22;;;;;;;;;;;;;;;13.31;52.13;100447.88;3150919;28;19980;-69
2023/10/04 04:54:55;;;;;;;;;;;;;;;13.34;52.13;100446.88;3163228;28;19937;-69
2023/10/04 04:56:26;;;;;;;;;;;;;;;13.35;52.22;100448.59;3163798;28;19978;-67
2023/10/04 04:57:57;;;;;;;;;;;;;;;13.34;52.35;100452.97;3153081;28;19935;-67
2023/10/04 04:59:31;;;;;;;;;;;;;;;13.30;52.59;100445.31;3152187;28;19928;-65
2023/10/04 05:01:07;;;;;;;;;;;;;;;13.25;52.63;100453.41;3153930;28;20001;-67
2023/10/04 05:02:39;;;;;;;;;;;;;;;13.21;52.68;100452.63;3153134;28;19928;-65
2023/10/04 05:04:11;;;;;;;;;;;;;;;13.21;52.69;100449.19;3153091;28;20001;-65
2023/10/04 05:05:43;;;;;;;;;;;;;;;13.16;53.02;100446.78;3156213;28;19928;-64
2023/10/04 05:07:14;;;;;;;;;;;;;;;13.16;53.03;100448.53;3162186;28;19927;-69
2023/10/04 05:08:48;;;;;;;;;;;;;;;13.14;53.29;100447.78;3164557;28;19927;-69
2023/10/04 05:10:18;;;;;;;;;;;;;;;13.13;53.24;100453.91;3161257;28;19981;-70
2023/10/04 05:11:50;;;;;;;;;;;;;;;13.11;53.35;100448.75;3160393;28;20079;-70
2023/10/04 05:13:21;;;;;;;;;;;;;;;13.10;53.54;100456.66;3164726;28;19969;-70
2023/10/04 05:14:54;;;;;;;;;;;;;;;13.11;53.20;100459.22;3162018;28;20011;-70
2023/10/04 05:16:25;;;;;;;;;;;;;;;13.13;53.38;100453.91;3159429;28;20400;-72
2023/10/04 05:17:56;;;;;;;;;;;;;;;13.15;53.37;100458.16;3164250;28;19928;-70
2023/10/04 05:19:29;;;;;;;;;;;;;;;13.18;53.15;100454.53;3164115;28;19950;-71
2023/10/04 05:21:00;;;;;;;;;;;;;;;13.24;53.07;100451.66;3164195;28;20428;-68
2023/10/04 05:22:32;;;;;;;;;;;;;;;13.29;52.73;100454.09;3164668;28;19928;-68
2023/10/04 05:24:05;;;;;;;;;;;;;;;13.28;53.13;100450.63;3164597;28;19985;-68
2023/10/04 05:25:36;;;;;;;;;;;;;;;13.25;53.48;100460.34;3158919;28;19928;-68
2023/10/04 05:27:07;;;;;;;;;;;;;;;13.23;53.44;100455.19;3157305;28;20026;-68
2023/10/04 05:28:38;;;;;;;;;;;;;;;13.23;53.67;100457.81;3157177;28;19927;-67
2023/10/04 05:30:15;;;;;;;;;;;;;;;13.27;53.46;100462.00;3163947;28;19928;-67
2023/10/04 05:31:47;;;;;;;;;;;;;;;13.31;53.50;100460.09;3149004;28;20425;-66
2023/10/04 05:33:18;;;;;;;;;;;;;;;13.37;53.16;100465.91;3159128;28;20372;-66
2023/10/04 05:34:50;;;;;;;;;;;;;;;13.42;53.14;100469.13;3151921;28;19928;-66
2023/10/04 05:36:22;;;;;;;;;;;;;;;13.43;53.08;100468.25;3161433;28;19988;-66
2023/10/04 05:37:53;;;;;;;;;;;;;;;13.42;53.29;100474.38;3164244;28;20006;-66
2023/10/04 05:39:24;;;;;;;;;;;;;;;13.43;53.39;100470.00;3166789;28;19985;-67
2023/10/04 05:40:57;;;;;;;;;;;;;;;13.41;53.59;100466.59;3161321;28;20022;-65
2023/10/04 05:42:28;;;;;;;;;;;;;;;13.42;53.87;100474.38;3166886;28;20145;-66
2023/10/04 05:43:59;;;;;;;;;;;;;;;13.41;53.92;100477.06;3166775;28;20452;-66
2023/10/04 05:45:32;;;;;;;;;;;;;;;13.45;53.76;100473.38;3161610;28;19928;-67
2023/10/04 05:47:04;;;;;;;;;;;;;;;13.50;53.77;100481.88;3150610;28;19980;-67
2023/10/04 05:48:35;;;;;;;;;;;;;;;13.53;53.52;100486.13;3166468;28;19985;-67
2023/10/04 05:50:08;;;;;;;;;;;;;;;13.55;53.79;100489.53;3166466;28;20447;-67
2023/10/04 05:51:40;;;;;;;;;;;;;;;13.59;53.58;100483.22;3166291;28;20484;-66
2023/10/04 05:53:14;;;;;;;;;;;;;;;13.63;53.49;100487.38;3166398;28;20042;-67
2023/10/04 05:54:47;;;;;;;;;;;;;;;13.61;53.67;100484.00;3155868;28;20007;-67
2023/10/04 05:56:19;;;;;;;;;;;;;;;13.61;53.73;100492.69;3166684;28;19931;-67
2023/10/04 05:57:52;;;;;;;;;;;;;;;13.67;53.77;100488.09;3161658;28;20314;-67
2023/10/04 05:59:22;;;;;;;;;;;;;;;13.70;53.89;100487.97;3141862;28;19928;-66
2023/10/04 06:00:56;;;;;;;;;;;;;;;13.74;53.78;100484.28;3156382;28;19955;-64
2023/10/04 06:02:28;;;;;;;;;;;;;;;13.84;53.66;100480.28;3146573;28;19928;-65
2023/10/04 06:04:30;;;;;;;;;;;;;;;13.89;53.86;100480.91;3159691;28;19950;-65
2023/10/04 06:06:06;;;;;;;;;;;;;;;13.95;53.68;100485.00;3146244;28;20001;-65
2023/10/04 06:07:42;;;;;;;;;;;;;;;14.03;53.63;100481.09;3166331;28;20212;-65
2023/10/04 06:09:26;;;;;;;;;;;;;;;14.10;53.17;100486.88;3161894;28;20507;-64
2023/10/04 06:11:05;;;;;;;;;;;;;;;14.15;53.48;100481.44;3141807;28;20374;-66
2023/10/04 06:12:36;;;;;;;;;;;;;;;14.28;53.23;100480.72;3141504;28;19928;-66
2023/10/04 06:14:10;;;;;;;;;;;;;;;14.42;53.07;100481.84;3158303;28;20455;-66
2023/10/04 06:15:42;;;;;;;;;;;;;;;14.56;52.75;100479.41;3160501;28;20518;-65
2023/10/04 06:17:23;;;;;;;;;;;;;;;14.72;52.58;100475.06;3164784;28;19957;-66
2023/10/04 06:18:55;;;;;;;;;;;;;;;14.99;52.43;100482.41;3165451;28;19928;-65
2023/10/04 06:20:28;;;;;;;;;;;;;;;15.24;52.14;100480.19;3166217;28;20002;-67
2023/10/04 06:22:02;;;;;;;;;;;;;;;15.51;51.98;100479.63;3166258;28;20015;-66
2023/10/04 06:25:40;;;;;;;;;;;;;;;16.19;51.36;100481.97;3163475;27;19923;-67
2023/10/04 06:27:11;;;;;;;;;;;;;;;16.55;51.09;100484.22;3150644;28;20356;-66
2023/10/04 06:28:43;;;;;;;;;;;;;;;16.90;50.92;100477.84;3157716;28;20000;-66
2023/10/04 06:30:13;;;;;;;;;;;;;;;17.24;50.52;100479.22;3151180;28;20298;-66
2023/10/04 06:31:46;;;;;;;;;;;;;;;17.58;50.25;100485.03;3157552;28;19928;-66
2023/10/04 06:33:17;;;;;;;;;;;;;;;17.96;49.66;100475.53;3159252;28;19938;-66
2023/10/04 06:34:49;;;;;;;;;;;;;;;18.28;49.07;100463.78;3158908;28;19982;-65
2023/10/04 06:36:19;;;;;;;;;;;;;;;18.53;48.61;100468.28;3158861;28;20369;-67
2023/10/04 06:37:52;;;;;;;;;;;;;;;18.69;48.24;100466.28;3157470;28;19932;-67
2023/10/04 06:39:23;;;;;;;;;;;;;;;18.82;47.82;100464.53;3162679;28;20000;-67
2023/10/04 06:40:56;;;;;;;;;;;;;;;18.98;47.61;100461.66;3162811;28;19927;-67
2023/10/04 06:42:27;;;;;;;;;;;;;;;19.31;47.49;100465.50;3162782;28;19932;-67
2023/10/04 06:43:58;;;;;;;;;;;;;;;19.63;47.27;100463.22;3163009;28;20443;-67
2023/10/04 06:45:29;;;;;;;;;;;;;;;19.85;46.33;100464.34;3165198;28;19961;-67
2023/10/04 06:47:01;;;;;;;;;;;;;;;20.11;46.14;100457.94;3163888;28;20097;-66
2023/10/04 06:48:33;;;;;;;;;;;;;;;20.52;45.80;100461.94;3164791;28;19951;-66
2023/10/04 06:50:06;;;;;;;;;;;;;;;20.90;45.42;100466.09;3168218;28;19960;-66
2023/10/04 06:51:38;;;;;;;;;;;;;;;21.25;44.93;100457.19;3168426;28;19943;-67
2023/10/04 06:53:10;;;;;;;;;;;;;;;21.63;44.37;100459.47;3168004;28;19981;-67
2023/10/04 06:54:41;;;;;;;;;;;;;;;21.86;43.92;100457.59;3167486;28;20369;-67
2023/10/04 06:56:14;;;;;;;;;;;;;;;22.06;43.64;100463.03;3167529;28;19928;-67
2023/10/04 06:57:48;;;;;;;;;;;;;;;22.23;43.10;100459.88;3167512;28;19942;-70
2023/10/04 06:59:19;;;;;;;;;;;;;;;22.34;42.65;100451.84;3167358;28;19931;-69
2023/10/04 07:01:01;;;;;;;;;;;;;;;22.46;42.34;100450.81;3165779;28;20351;-68
2023/10/04 07:02:32;;;;;;;;;;;;;;;22.56;42.06;100453.53;3161524;28;19935;-68
2023/10/04 07:04:08;;;;;;;;;;;;;;;22.67;41.59;100458.75;3164606;28;20026;-68
2023/10/04 07:05:47;;;;;;;;;;;;;;;22.91;41.63;100455.81;3161173;28;19928;-70
2023/10/04 07:09:22;;;;;;;;;;;;;;;23.74;40.89;100458.34;3152725;28;20413;-68
2023/10/04 07:11:00;;;;;;;;;;;;;;;24.15;40.36;100456.41;3167562;28;19931;-67
2023/10/04 07:12:33;;;;;;;;;;;;;;;24.65;39.10;100445.56;3167437;28;19932;-67
2023/10/04 07:14:05;;;;;;;;;;;;;;;24.66;38.20;100445.41;3167678;28;19930;-67
2023/10/04 07:15:39;;;;;;;;;;;;;;;24.62;38.34;100454.69;3167618;28;20014;-68
2023/10/04 07:17:19;;;;;;;;;;;;;;;24.66;37.87;100448.09;3167676;28;19931;-67
2023/10/04 07:19:05;;;;;;;;;;;;;;;24.83;37.77;100446.50;3167483;28;19924;-68
2023/10/04 07:20:37;;;;;;;;;;;;;;;24.94;37.70;100443.66;3166899;28;20003;-67
2023/10/04 07:22:08;;;;;;;;;;;;;;;25.08;36.88;100444.16;3167528;28;20324;-67
2023/10/04 07:25:27;;;;;;;;;;;;;;;25.28;36.65;100439.59;3178522;28;19927;-66
2023/10/04 07:26:58;;;;;;;;;;;;;;;25.73;36.14;100444.06;3180284;28;20094;-67
2023/10/04 07:28:37;;;;;;;;;;;;;;;26.22;36.02;100437.38;3180173;28;20003;-67
2023/10/04 07:30:08;;;;;;;;;;;;;;;26.60;34.97;100435.34;3180455;28;20316;-66
2023/10/04 07:31:39;;;;;;;;;;;;;;;26.67;34.71;100440.88;3173080;28;19947;-67
2023/10/04 07:33:12;;;;;;;;;;;;;;;26.86;34.44;100438.00;3176426;28;20246;-66
2023/10/04 07:34:43;;;;;;;;;;;;;;;27.30;34.45;100439.69;3176422;28;19958;-66
2023/10/04 07:36:32;;;;;;;;;;;;;;;27.67;33.34;100434.78;3175824;28;20000;-67
2023/10/04 07:38:07;;;;;;;;;;;;;;;27.64;33.40;100436.94;3169214;28;19936;-67
2023/10/04 07:39:52;;;;;;;;;;;;;;;27.93;33.34;100433.00;3171885;28;20430;-66
2023/10/04 07:41:29;;;;;;;;;;;;;;;28.22;32.80;100436.03;3171754;28;20005;-67
2023/10/04 07:43:01;;;;;;;;;;;;;;;28.48;32.31;100433.16;3171368;28;20030;-67
2023/10/04 07:44:34;;;;;;;;;;;;;;;28.75;32.37;100434.63;3171520;28;20010;-66
2023/10/04 07:46:05;;;;;;;;;;;;;;;28.78;31.25;100436.09;3171113;28;19973;-67
2023/10/04 07:47:37;;;;;;;;;;;;;;;28.91;31.35;100425.69;3171494;28;20444;-66
2023/10/04 07:49:08;;;;;;;;;;;;;;;29.10;31.42;100437.88;3171250;28;20012;-66
2023/10/04 07:50:39;;;;;;;;;;;;;;;29.44;30.67;100434.03;3170423;28;19931;-68
2023/10/04 07:52:10;;;;;;;;;;;;;;;29.48;30.82;100436.16;3171433;28;20393;-72
2023/10/04 07:53:42;;;;;;;;;;;;;;;29.25;30.50;100438.81;3171082;28;19931;-69
2023/10/04 07:55:14;;;;;;;;;;;;;;;28.93;30.50;100436.22;3169990;28;20369;-73
2023/10/04 07:56:46;;;;;;;;;;;;;;;28.85;30.78;100441.63;3171536;28;19928;-72
2023/10/04 07:58:17;;;;;;;;;;;;;;;29.03;31.08;100431.53;3171419;28;19924;-73
2023/10/04 07:59:56;;;;;;;;;;;;;;;29.14;30.52;100431.16;3172501;28;20018;-73
2023/10/04 08:01:28;;;;;;;;;;;;;;;29.35;30.76;100433.22;3165967;28;19928;-71
2023/10/04 08:02:59;;;;;;;;;;;;;;;29.70;30.20;100434.56;3161007;28;19935;-73